sensor_id;sensor_type;location;lat;lon;timestamp;P1;durP1;ratioP1;P2;durP2;ratioP2
22871;SDS011;11603;44.910;8.630;2022-12-18T00:02:24;76.68;;;49.08;;
22871;SDS011;11603;44.910;8.630;2022-12-18T00:04:49;78.20;;;52.15;;
22871;SDS011;11603;44.910;8.630;2022-12-18T00:07:15;76.95;;;50.92;;
22871;SDS011;11603;44.910;8.630;2022-12-18T00:09:40;78.25;;;51.85;;
22871;SDS011;11603;44.910;8.630;2022-12-18T00:12:06;74.93;;;49.67;;
22871;SDS011;11603;44.910;8.630;2022-12-18T00:14:31;73.93;;;49.70;;
22871;SDS011;11603;44.910;8.630;2022-12-18T00:16:57;74.05;;;49.88;;
22871;SDS011;11603;44.910;8.630;2022-12-18T00:19:25;72.07;;;48.22;;
22871;SDS011;11603;44.910;8.630;2022-12-18T00:21:51;70.97;;;47.35;;
22871;SDS011;11603;44.910;8.630;2022-12-18T00:24:17;72.72;;;46.88;;
22871;SDS011;11603;44.910;8.630;2022-12-18T00:26:42;65.38;;;44.28;;
22871;SDS011;11603;44.910;8.630;2022-12-18T00:29:10;77.18;;;45.72;;
22871;SDS011;11603;44.910;8.630;2022-12-18T00:31:39;70.78;;;45.15;;
22871;SDS011;11603;44.910;8.630;2022-12-18T00:34:05;70.72;;;42.08;;
22871;SDS011;11603;44.910;8.630;2022-12-18T00:36:31;63.88;;;43.53;;
22871;SDS011;11603;44.910;8.630;2022-12-18T00:39:00;65.63;;;43.72;;
22871;SDS011;11603;44.910;8.630;2022-12-18T00:41:26;65.00;;;44.70;;
22871;SDS011;11603;44.910;8.630;2022-12-18T00:44:12;65.82;;;43.75;;
22871;SDS011;11603;44.910;8.630;2022-12-18T00:46:39;67.72;;;42.88;;
22871;SDS011;11603;44.910;8.630;2022-12-18T00:49:05;67.75;;;44.45;;
22871;SDS011;11603;44.910;8.630;2022-12-18T00:51:30;71.68;;;45.15;;
22871;SDS011;11603;44.910;8.630;2022-12-18T00:53:56;72.55;;;45.22;;
22871;SDS011;11603;44.910;8.630;2022-12-18T00:56:21;66.30;;;44.60;;
22871;SDS011;11603;44.910;8.630;2022-12-18T00:58:48;67.45;;;45.35;;
22871;SDS011;11603;44.910;8.630;2022-12-18T01:01:14;71.80;;;45.05;;
22871;SDS011;11603;44.910;8.630;2022-12-18T01:03:40;70.03;;;46.67;;
22871;SDS011;11603;44.910;8.630;2022-12-18T01:06:06;73.38;;;47.17;;
22871;SDS011;11603;44.910;8.630;2022-12-18T01:08:32;69.95;;;46.47;;
22871;SDS011;11603;44.910;8.630;2022-12-18T01:10:58;70.00;;;45.60;;
22871;SDS011;11603;44.910;8.630;2022-12-18T01:13:24;78.25;;;49.92;;
22871;SDS011;11603;44.910;8.630;2022-12-18T01:15:50;73.18;;;45.83;;
22871;SDS011;11603;44.910;8.630;2022-12-18T01:18:16;68.90;;;45.08;;
22871;SDS011;11603;44.910;8.630;2022-12-18T01:20:41;78.47;;;47.28;;
22871;SDS011;11603;44.910;8.630;2022-12-18T01:23:07;73.47;;;46.92;;
22871;SDS011;11603;44.910;8.630;2022-12-18T01:25:33;76.60;;;47.47;;
22871;SDS011;11603;44.910;8.630;2022-12-18T01:28:01;75.80;;;45.20;;
22871;SDS011;11603;44.910;8.630;2022-12-18T01:30:26;70.97;;;45.28;;
22871;SDS011;11603;44.910;8.630;2022-12-18T01:32:52;65.60;;;43.85;;
22871;SDS011;11603;44.910;8.630;2022-12-18T01:35:18;70.53;;;45.03;;
22871;SDS011;11603;44.910;8.630;2022-12-18T01:37:45;64.00;;;43.58;;
22871;SDS011;11603;44.910;8.630;2022-12-18T01:40:10;68.05;;;43.90;;
22871;SDS011;11603;44.910;8.630;2022-12-18T01:42:36;68.00;;;44.55;;
22871;SDS011;11603;44.910;8.630;2022-12-18T01:47:38;70.82;;;44.33;;
22871;SDS011;11603;44.910;8.630;2022-12-18T01:52:53;77.90;;;46.00;;
22871;SDS011;11603;44.910;8.630;2022-12-18T01:55:31;70.82;;;46.65;;
22871;SDS011;11603;44.910;8.630;2022-12-18T01:58:01;75.15;;;47.15;;
22871;SDS011;11603;44.910;8.630;2022-12-18T02:00:28;74.45;;;48.33;;
22871;SDS011;11603;44.910;8.630;2022-12-18T02:02:54;84.22;;;47.65;;
22871;SDS011;11603;44.910;8.630;2022-12-18T02:05:33;77.60;;;47.28;;
22871;SDS011;11603;44.910;8.630;2022-12-18T02:08:09;78.47;;;49.33;;
22871;SDS011;11603;44.910;8.630;2022-12-18T02:16:59;76.05;;;47.80;;
22871;SDS011;11603;44.910;8.630;2022-12-18T02:24:58;76.57;;;47.75;;
22871;SDS011;11603;44.910;8.630;2022-12-18T02:27:30;79.32;;;48.60;;
22871;SDS011;11603;44.910;8.630;2022-12-18T02:29:57;74.40;;;49.35;;
22871;SDS011;11603;44.910;8.630;2022-12-18T02:32:28;78.90;;;48.72;;
22871;SDS011;11603;44.910;8.630;2022-12-18T02:34:59;77.38;;;50.47;;
22871;SDS011;11603;44.910;8.630;2022-12-18T02:37:28;79.35;;;50.28;;
22871;SDS011;11603;44.910;8.630;2022-12-18T02:39:59;76.88;;;48.40;;
22871;SDS011;11603;44.910;8.630;2022-12-18T02:42:29;75.43;;;47.58;;
22871;SDS011;11603;44.910;8.630;2022-12-18T02:44:54;76.88;;;48.70;;
22871;SDS011;11603;44.910;8.630;2022-12-18T02:47:24;82.75;;;49.15;;
22871;SDS011;11603;44.910;8.630;2022-12-18T02:53:13;79.18;;;49.08;;
22871;SDS011;11603;44.910;8.630;2022-12-18T02:56:07;77.30;;;50.17;;
22871;SDS011;11603;44.910;8.630;2022-12-18T02:59:23;77.95;;;48.10;;
22871;SDS011;11603;44.910;8.630;2022-12-18T03:01:58;74.28;;;46.47;;
22871;SDS011;11603;44.910;8.630;2022-12-18T03:04:55;75.43;;;48.20;;
22871;SDS011;11603;44.910;8.630;2022-12-18T03:07:34;79.18;;;48.60;;
22871;SDS011;11603;44.910;8.630;2022-12-18T03:10:08;74.85;;;48.13;;
22871;SDS011;11603;44.910;8.630;2022-12-18T03:13:02;75.90;;;48.72;;
22871;SDS011;11603;44.910;8.630;2022-12-18T03:15:49;75.65;;;48.83;;
22871;SDS011;11603;44.910;8.630;2022-12-18T03:18:22;81.53;;;48.40;;
22871;SDS011;11603;44.910;8.630;2022-12-18T03:20:52;87.07;;;50.97;;
22871;SDS011;11603;44.910;8.630;2022-12-18T03:23:27;80.55;;;48.45;;
22871;SDS011;11603;44.910;8.630;2022-12-18T03:25:58;88.28;;;49.80;;
22871;SDS011;11603;44.910;8.630;2022-12-18T03:28:27;79.88;;;49.17;;
22871;SDS011;11603;44.910;8.630;2022-12-18T03:30:59;79.32;;;48.85;;
22871;SDS011;11603;44.910;8.630;2022-12-18T03:33:34;84.25;;;50.05;;
22871;SDS011;11603;44.910;8.630;2022-12-18T03:36:04;79.15;;;48.88;;
22871;SDS011;11603;44.910;8.630;2022-12-18T03:38:31;76.90;;;47.13;;
22871;SDS011;11603;44.910;8.630;2022-12-18T03:44:12;78.18;;;46.30;;
22871;SDS011;11603;44.910;8.630;2022-12-18T03:50:07;83.53;;;47.63;;
22871;SDS011;11603;44.910;8.630;2022-12-18T03:55:40;77.97;;;47.40;;
22871;SDS011;11603;44.910;8.630;2022-12-18T03:58:11;85.65;;;46.97;;
22871;SDS011;11603;44.910;8.630;2022-12-18T04:04:05;76.50;;;47.05;;
22871;SDS011;11603;44.910;8.630;2022-12-18T04:06:37;80.90;;;49.15;;
22871;SDS011;11603;44.910;8.630;2022-12-18T04:09:05;85.05;;;47.88;;
22871;SDS011;11603;44.910;8.630;2022-12-18T04:11:36;73.50;;;46.30;;
22871;SDS011;11603;44.910;8.630;2022-12-18T04:14:03;74.47;;;46.25;;
22871;SDS011;11603;44.910;8.630;2022-12-18T04:16:30;69.50;;;43.95;;
22871;SDS011;11603;44.910;8.630;2022-12-18T04:18:59;76.63;;;45.55;;
22871;SDS011;11603;44.910;8.630;2022-12-18T04:21:27;77.63;;;45.15;;
22871;SDS011;11603;44.910;8.630;2022-12-18T04:23:53;80.70;;;45.55;;
22871;SDS011;11603;44.910;8.630;2022-12-18T04:26:21;76.25;;;44.08;;
22871;SDS011;11603;44.910;8.630;2022-12-18T04:29:08;73.80;;;44.42;;
22871;SDS011;11603;44.910;8.630;2022-12-18T04:31:33;71.55;;;42.97;;
22871;SDS011;11603;44.910;8.630;2022-12-18T04:33:59;71.05;;;42.40;;
22871;SDS011;11603;44.910;8.630;2022-12-18T04:36:25;81.80;;;43.08;;
22871;SDS011;11603;44.910;8.630;2022-12-18T04:38:54;80.97;;;43.90;;
22871;SDS011;11603;44.910;8.630;2022-12-18T04:41:20;81.75;;;44.72;;
22871;SDS011;11603;44.910;8.630;2022-12-18T04:43:47;76.00;;;44.40;;
22871;SDS011;11603;44.910;8.630;2022-12-18T04:46:12;77.28;;;43.50;;
22871;SDS011;11603;44.910;8.630;2022-12-18T04:48:39;82.32;;;44.03;;
22871;SDS011;11603;44.910;8.630;2022-12-18T04:51:05;78.55;;;43.58;;
22871;SDS011;11603;44.910;8.630;2022-12-18T04:53:31;85.13;;;44.80;;
22871;SDS011;11603;44.910;8.630;2022-12-18T04:56:04;77.90;;;45.05;;
22871;SDS011;11603;44.910;8.630;2022-12-18T04:58:34;83.53;;;45.22;;
22871;SDS011;11603;44.910;8.630;2022-12-18T05:01:00;85.03;;;44.63;;
22871;SDS011;11603;44.910;8.630;2022-12-18T05:03:28;79.07;;;46.17;;
22871;SDS011;11603;44.910;8.630;2022-12-18T05:05:54;80.32;;;43.60;;
22871;SDS011;11603;44.910;8.630;2022-12-18T05:08:19;84.60;;;44.47;;
22871;SDS011;11603;44.910;8.630;2022-12-18T05:10:46;79.28;;;43.08;;
22871;SDS011;11603;44.910;8.630;2022-12-18T05:13:11;88.53;;;45.13;;
22871;SDS011;11603;44.910;8.630;2022-12-18T05:15:37;85.40;;;44.17;;
22871;SDS011;11603;44.910;8.630;2022-12-18T05:18:03;90.35;;;46.55;;
22871;SDS011;11603;44.910;8.630;2022-12-18T05:20:29;96.45;;;45.30;;
22871;SDS011;11603;44.910;8.630;2022-12-18T05:22:54;89.38;;;46.03;;
22871;SDS011;11603;44.910;8.630;2022-12-18T05:25:20;83.80;;;44.97;;
22871;SDS011;11603;44.910;8.630;2022-12-18T05:27:47;91.65;;;45.70;;
22871;SDS011;11603;44.910;8.630;2022-12-18T05:30:13;89.35;;;46.08;;
22871;SDS011;11603;44.910;8.630;2022-12-18T05:32:39;87.07;;;45.42;;
22871;SDS011;11603;44.910;8.630;2022-12-18T05:35:05;97.55;;;47.63;;
22871;SDS011;11603;44.910;8.630;2022-12-18T05:37:32;93.30;;;46.60;;
22871;SDS011;11603;44.910;8.630;2022-12-18T05:39:57;92.85;;;48.47;;
22871;SDS011;11603;44.910;8.630;2022-12-18T05:42:23;97.10;;;47.08;;
22871;SDS011;11603;44.910;8.630;2022-12-18T05:44:48;105.25;;;47.65;;
22871;SDS011;11603;44.910;8.630;2022-12-18T05:47:14;96.20;;;46.90;;
22871;SDS011;11603;44.910;8.630;2022-12-18T05:49:39;100.22;;;46.97;;
22871;SDS011;11603;44.910;8.630;2022-12-18T05:52:05;93.15;;;47.00;;
22871;SDS011;11603;44.910;8.630;2022-12-18T05:54:30;95.47;;;46.35;;
22871;SDS011;11603;44.910;8.630;2022-12-18T05:56:56;100.07;;;47.40;;
22871;SDS011;11603;44.910;8.630;2022-12-18T05:59:22;95.85;;;46.50;;
22871;SDS011;11603;44.910;8.630;2022-12-18T06:01:47;95.68;;;46.25;;
22871;SDS011;11603;44.910;8.630;2022-12-18T06:04:13;93.43;;;46.60;;
22871;SDS011;11603;44.910;8.630;2022-12-18T06:06:38;93.18;;;46.90;;
22871;SDS011;11603;44.910;8.630;2022-12-18T06:09:04;102.40;;;46.97;;
22871;SDS011;11603;44.910;8.630;2022-12-18T06:11:37;88.25;;;46.20;;
22871;SDS011;11603;44.910;8.630;2022-12-18T06:14:04;90.88;;;44.63;;
22871;SDS011;11603;44.910;8.630;2022-12-18T06:16:31;91.05;;;44.78;;
22871;SDS011;11603;44.910;8.630;2022-12-18T06:18:57;87.25;;;44.38;;
22871;SDS011;11603;44.910;8.630;2022-12-18T06:21:23;94.43;;;45.97;;
22871;SDS011;11603;44.910;8.630;2022-12-18T06:23:49;96.13;;;44.25;;
22871;SDS011;11603;44.910;8.630;2022-12-18T06:26:14;90.07;;;46.83;;
22871;SDS011;11603;44.910;8.630;2022-12-18T06:28:40;103.45;;;46.25;;
22871;SDS011;11603;44.910;8.630;2022-12-18T06:31:06;98.25;;;46.10;;
22871;SDS011;11603;44.910;8.630;2022-12-18T06:33:31;103.30;;;45.50;;
22871;SDS011;11603;44.910;8.630;2022-12-18T06:36:02;116.03;;;46.58;;
22871;SDS011;11603;44.910;8.630;2022-12-18T06:38:27;104.13;;;45.88;;
22871;SDS011;11603;44.910;8.630;2022-12-18T06:40:53;95.47;;;46.47;;
22871;SDS011;11603;44.910;8.630;2022-12-18T06:43:18;110.47;;;46.95;;
22871;SDS011;11603;44.910;8.630;2022-12-18T06:45:44;105.05;;;48.08;;
22871;SDS011;11603;44.910;8.630;2022-12-18T06:48:09;175.48;;;71.22;;
22871;SDS011;11603;44.910;8.630;2022-12-18T06:50:35;110.50;;;51.35;;
22871;SDS011;11603;44.910;8.630;2022-12-18T06:53:00;120.18;;;52.78;;
22871;SDS011;11603;44.910;8.630;2022-12-18T06:55:26;111.38;;;48.65;;
22871;SDS011;11603;44.910;8.630;2022-12-18T06:57:51;106.40;;;47.47;;
22871;SDS011;11603;44.910;8.630;2022-12-18T07:00:17;118.03;;;50.38;;
22871;SDS011;11603;44.910;8.630;2022-12-18T07:02:42;112.15;;;48.25;;
22871;SDS011;11603;44.910;8.630;2022-12-18T07:05:08;110.78;;;49.35;;
22871;SDS011;11603;44.910;8.630;2022-12-18T07:07:34;99.47;;;46.65;;
22871;SDS011;11603;44.910;8.630;2022-12-18T07:10:00;97.88;;;45.97;;
22871;SDS011;11603;44.910;8.630;2022-12-18T07:12:26;101.20;;;47.97;;
22871;SDS011;11603;44.910;8.630;2022-12-18T07:14:52;108.97;;;48.13;;
22871;SDS011;11603;44.910;8.630;2022-12-18T07:17:18;100.82;;;47.15;;
22871;SDS011;11603;44.910;8.630;2022-12-18T07:19:43;109.50;;;48.35;;
22871;SDS011;11603;44.910;8.630;2022-12-18T07:22:09;93.47;;;45.22;;
22871;SDS011;11603;44.910;8.630;2022-12-18T07:24:34;96.13;;;46.58;;
22871;SDS011;11603;44.910;8.630;2022-12-18T07:27:00;106.00;;;47.28;;
22871;SDS011;11603;44.910;8.630;2022-12-18T07:29:25;89.35;;;46.63;;
22871;SDS011;11603;44.910;8.630;2022-12-18T07:31:50;99.45;;;47.17;;
22871;SDS011;11603;44.910;8.630;2022-12-18T07:34:16;104.85;;;47.83;;
22871;SDS011;11603;44.910;8.630;2022-12-18T07:36:42;105.07;;;47.25;;
22871;SDS011;11603;44.910;8.630;2022-12-18T07:39:07;93.53;;;46.08;;
22871;SDS011;11603;44.910;8.630;2022-12-18T07:41:33;97.18;;;45.50;;
22871;SDS011;11603;44.910;8.630;2022-12-18T07:44:09;94.88;;;46.05;;
22871;SDS011;11603;44.910;8.630;2022-12-18T07:46:35;89.72;;;46.08;;
22871;SDS011;11603;44.910;8.630;2022-12-18T07:49:01;99.70;;;47.42;;
22871;SDS011;11603;44.910;8.630;2022-12-18T07:51:26;92.78;;;46.70;;
22871;SDS011;11603;44.910;8.630;2022-12-18T07:53:52;98.10;;;46.60;;
22871;SDS011;11603;44.910;8.630;2022-12-18T07:56:17;90.93;;;44.47;;
22871;SDS011;11603;44.910;8.630;2022-12-18T07:58:43;90.85;;;46.30;;
22871;SDS011;11603;44.910;8.630;2022-12-18T08:01:11;86.38;;;43.53;;
22871;SDS011;11603;44.910;8.630;2022-12-18T08:03:37;87.53;;;44.53;;
22871;SDS011;11603;44.910;8.630;2022-12-18T08:06:05;95.15;;;45.60;;
22871;SDS011;11603;44.910;8.630;2022-12-18T08:08:32;94.32;;;45.75;;
22871;SDS011;11603;44.910;8.630;2022-12-18T08:10:59;93.78;;;45.38;;
22871;SDS011;11603;44.910;8.630;2022-12-18T08:13:24;88.88;;;45.40;;
22871;SDS011;11603;44.910;8.630;2022-12-18T08:16:04;92.28;;;45.85;;
22871;SDS011;11603;44.910;8.630;2022-12-18T08:18:34;91.68;;;44.85;;
22871;SDS011;11603;44.910;8.630;2022-12-18T08:21:10;90.78;;;45.50;;
22871;SDS011;11603;44.910;8.630;2022-12-18T08:23:40;96.70;;;45.03;;
22871;SDS011;11603;44.910;8.630;2022-12-18T08:26:06;87.55;;;44.22;;
22871;SDS011;11603;44.910;8.630;2022-12-18T08:28:32;88.32;;;46.13;;
22871;SDS011;11603;44.910;8.630;2022-12-18T08:30:58;86.78;;;43.40;;
22871;SDS011;11603;44.910;8.630;2022-12-18T08:33:23;93.07;;;44.65;;
22871;SDS011;11603;44.910;8.630;2022-12-18T08:35:49;85.00;;;42.78;;
22871;SDS011;11603;44.910;8.630;2022-12-18T08:38:14;87.32;;;44.70;;
22871;SDS011;11603;44.910;8.630;2022-12-18T08:40:40;87.28;;;42.58;;
22871;SDS011;11603;44.910;8.630;2022-12-18T08:43:06;83.22;;;43.90;;
22871;SDS011;11603;44.910;8.630;2022-12-18T08:45:53;84.10;;;42.33;;
22871;SDS011;11603;44.910;8.630;2022-12-18T08:48:18;81.22;;;42.15;;
22871;SDS011;11603;44.910;8.630;2022-12-18T08:50:52;83.45;;;41.33;;
22871;SDS011;11603;44.910;8.630;2022-12-18T08:53:25;87.38;;;43.78;;
22871;SDS011;11603;44.910;8.630;2022-12-18T08:55:52;77.45;;;41.97;;
22871;SDS011;11603;44.910;8.630;2022-12-18T08:58:18;77.75;;;42.60;;
22871;SDS011;11603;44.910;8.630;2022-12-18T09:00:44;79.18;;;41.13;;
22871;SDS011;11603;44.910;8.630;2022-12-18T09:03:16;75.13;;;40.72;;
22871;SDS011;11603;44.910;8.630;2022-12-18T09:05:43;74.95;;;41.45;;
22871;SDS011;11603;44.910;8.630;2022-12-18T09:08:11;77.80;;;42.25;;
22871;SDS011;11603;44.910;8.630;2022-12-18T09:10:43;85.00;;;43.63;;
22871;SDS011;11603;44.910;8.630;2022-12-18T09:13:12;81.72;;;43.20;;
22871;SDS011;11603;44.910;8.630;2022-12-18T09:15:42;77.78;;;42.67;;
22871;SDS011;11603;44.910;8.630;2022-12-18T09:18:10;84.93;;;44.13;;
22871;SDS011;11603;44.910;8.630;2022-12-18T09:20:36;83.47;;;45.03;;
22871;SDS011;11603;44.910;8.630;2022-12-18T09:23:02;81.43;;;44.10;;
22871;SDS011;11603;44.910;8.630;2022-12-18T09:25:28;84.18;;;45.70;;
22871;SDS011;11603;44.910;8.630;2022-12-18T09:28:18;87.18;;;45.67;;
22871;SDS011;11603;44.910;8.630;2022-12-18T09:30:45;85.07;;;44.13;;
22871;SDS011;11603;44.910;8.630;2022-12-18T09:33:12;82.60;;;44.00;;
22871;SDS011;11603;44.910;8.630;2022-12-18T09:35:39;76.95;;;44.20;;
22871;SDS011;11603;44.910;8.630;2022-12-18T09:38:07;84.95;;;44.63;;
22871;SDS011;11603;44.910;8.630;2022-12-18T09:40:39;93.38;;;45.67;;
22871;SDS011;11603;44.910;8.630;2022-12-18T09:46:01;87.25;;;46.75;;
22871;SDS011;11603;44.910;8.630;2022-12-18T09:48:40;82.57;;;44.33;;
22871;SDS011;11603;44.910;8.630;2022-12-18T09:51:14;87.97;;;47.55;;
22871;SDS011;11603;44.910;8.630;2022-12-18T09:53:45;87.47;;;45.10;;
22871;SDS011;11603;44.910;8.630;2022-12-18T09:56:16;85.35;;;45.95;;
22871;SDS011;11603;44.910;8.630;2022-12-18T09:58:46;87.82;;;47.50;;
22871;SDS011;11603;44.910;8.630;2022-12-18T10:01:21;86.72;;;45.97;;
22871;SDS011;11603;44.910;8.630;2022-12-18T10:03:49;84.25;;;47.22;;
22871;SDS011;11603;44.910;8.630;2022-12-18T10:06:36;87.75;;;47.70;;
22871;SDS011;11603;44.910;8.630;2022-12-18T10:09:10;82.32;;;45.70;;
22871;SDS011;11603;44.910;8.630;2022-12-18T10:11:43;79.88;;;45.35;;
22871;SDS011;11603;44.910;8.630;2022-12-18T10:20:35;88.03;;;48.13;;
22871;SDS011;11603;44.910;8.630;2022-12-18T10:26:02;81.55;;;47.58;;
22871;SDS011;11603;44.910;8.630;2022-12-18T10:28:35;87.32;;;47.22;;
22871;SDS011;11603;44.910;8.630;2022-12-18T10:31:04;83.80;;;47.25;;
22871;SDS011;11603;44.910;8.630;2022-12-18T10:33:31;78.88;;;45.85;;
22871;SDS011;11603;44.910;8.630;2022-12-18T10:35:58;79.85;;;45.38;;
22871;SDS011;11603;44.910;8.630;2022-12-18T10:38:28;77.45;;;45.85;;
22871;SDS011;11603;44.910;8.630;2022-12-18T10:43:32;75.45;;;44.00;;
22871;SDS011;11603;44.910;8.630;2022-12-18T10:48:33;71.78;;;43.33;;
22871;SDS011;11603;44.910;8.630;2022-12-18T10:51:05;76.78;;;44.03;;
22871;SDS011;11603;44.910;8.630;2022-12-18T10:53:33;79.63;;;44.97;;
22871;SDS011;11603;44.910;8.630;2022-12-18T10:56:00;76.38;;;42.00;;
22871;SDS011;11603;44.910;8.630;2022-12-18T10:58:28;78.32;;;43.60;;
22871;SDS011;11603;44.910;8.630;2022-12-18T11:03:30;69.90;;;43.78;;
22871;SDS011;11603;44.910;8.630;2022-12-18T11:06:02;73.13;;;43.38;;
22871;SDS011;11603;44.910;8.630;2022-12-18T11:08:30;72.38;;;42.85;;
22871;SDS011;11603;44.910;8.630;2022-12-18T11:10:55;72.10;;;42.45;;
22871;SDS011;11603;44.910;8.630;2022-12-18T11:13:21;70.13;;;43.70;;
22871;SDS011;11603;44.910;8.630;2022-12-18T11:15:50;70.28;;;43.53;;
22871;SDS011;11603;44.910;8.630;2022-12-18T11:20:55;74.45;;;41.90;;
22871;SDS011;11603;44.910;8.630;2022-12-18T11:23:23;68.93;;;40.53;;
22871;SDS011;11603;44.910;8.630;2022-12-18T11:25:56;74.50;;;42.92;;
22871;SDS011;11603;44.910;8.630;2022-12-18T11:28:25;71.22;;;41.78;;
22871;SDS011;11603;44.910;8.630;2022-12-18T11:33:42;68.00;;;40.63;;
22871;SDS011;11603;44.910;8.630;2022-12-18T11:36:31;69.10;;;42.90;;
22871;SDS011;11603;44.910;8.630;2022-12-18T11:39:04;67.22;;;41.53;;
22871;SDS011;11603;44.910;8.630;2022-12-18T11:41:39;67.57;;;41.88;;
22871;SDS011;11603;44.910;8.630;2022-12-18T11:47:39;80.10;;;43.95;;
22871;SDS011;11603;44.910;8.630;2022-12-18T11:50:17;70.75;;;42.70;;
22871;SDS011;11603;44.910;8.630;2022-12-18T11:52:45;69.05;;;42.83;;
22871;SDS011;11603;44.910;8.630;2022-12-18T11:55:12;70.47;;;43.03;;
22871;SDS011;11603;44.910;8.630;2022-12-18T12:04:26;66.97;;;41.45;;
22871;SDS011;11603;44.910;8.630;2022-12-18T12:10:22;68.75;;;42.33;;
22871;SDS011;11603;44.910;8.630;2022-12-18T12:20:49;66.00;;;40.95;;
22871;SDS011;11603;44.910;8.630;2022-12-18T12:26:01;61.15;;;39.40;;
22871;SDS011;11603;44.910;8.630;2022-12-18T12:31:42;63.47;;;39.95;;
22871;SDS011;11603;44.910;8.630;2022-12-18T12:34:19;66.00;;;40.90;;
22871;SDS011;11603;44.910;8.630;2022-12-18T12:40:02;63.60;;;40.58;;
22871;SDS011;11603;44.910;8.630;2022-12-18T12:42:35;67.05;;;40.40;;
22871;SDS011;11603;44.910;8.630;2022-12-18T12:45:30;67.40;;;40.50;;
22871;SDS011;11603;44.910;8.630;2022-12-18T12:48:02;62.85;;;40.63;;
22871;SDS011;11603;44.910;8.630;2022-12-18T12:50:33;67.25;;;42.53;;
22871;SDS011;11603;44.910;8.630;2022-12-18T12:53:00;67.53;;;43.10;;
22871;SDS011;11603;44.910;8.630;2022-12-18T12:55:30;68.03;;;42.17;;
22871;SDS011;11603;44.910;8.630;2022-12-18T12:58:02;66.30;;;42.50;;
22871;SDS011;11603;44.910;8.630;2022-12-18T13:00:58;69.78;;;42.75;;
22871;SDS011;11603;44.910;8.630;2022-12-18T13:09:24;64.90;;;40.83;;
22871;SDS011;11603;44.910;8.630;2022-12-18T13:11:49;69.70;;;42.85;;
22871;SDS011;11603;44.910;8.630;2022-12-18T13:14:34;65.60;;;41.97;;
22871;SDS011;11603;44.910;8.630;2022-12-18T13:17:14;66.20;;;41.10;;
22871;SDS011;11603;44.910;8.630;2022-12-18T13:19:49;66.53;;;41.17;;
22871;SDS011;11603;44.910;8.630;2022-12-18T13:22:23;68.60;;;42.53;;
22871;SDS011;11603;44.910;8.630;2022-12-18T13:24:59;65.80;;;40.13;;
22871;SDS011;11603;44.910;8.630;2022-12-18T13:35:52;75.57;;;42.60;;
22871;SDS011;11603;44.910;8.630;2022-12-18T13:38:35;68.82;;;43.67;;
22871;SDS011;11603;44.910;8.630;2022-12-18T13:43:43;67.60;;;41.22;;
22871;SDS011;11603;44.910;8.630;2022-12-18T13:51:40;62.72;;;41.75;;
22871;SDS011;11603;44.910;8.630;2022-12-18T13:56:44;68.32;;;41.80;;
22871;SDS011;11603;44.910;8.630;2022-12-18T13:59:13;68.32;;;41.08;;
22871;SDS011;11603;44.910;8.630;2022-12-18T14:01:51;62.13;;;40.45;;
22871;SDS011;11603;44.910;8.630;2022-12-18T14:06:57;64.45;;;40.47;;
22871;SDS011;11603;44.910;8.630;2022-12-18T14:09:31;63.30;;;38.33;;
22871;SDS011;11603;44.910;8.630;2022-12-18T14:12:01;61.33;;;38.60;;
22871;SDS011;11603;44.910;8.630;2022-12-18T14:14:47;61.92;;;37.42;;
22871;SDS011;11603;44.910;8.630;2022-12-18T14:17:15;59.60;;;37.25;;
22871;SDS011;11603;44.910;8.630;2022-12-18T14:19:43;62.00;;;38.35;;
22871;SDS011;11603;44.910;8.630;2022-12-18T14:22:14;63.10;;;36.90;;
22871;SDS011;11603;44.910;8.630;2022-12-18T14:24:42;64.40;;;37.40;;
22871;SDS011;11603;44.910;8.630;2022-12-18T14:27:12;60.80;;;37.45;;
22871;SDS011;11603;44.910;8.630;2022-12-18T14:29:44;58.35;;;35.92;;
22871;SDS011;11603;44.910;8.630;2022-12-18T14:32:17;64.20;;;37.20;;
22871;SDS011;11603;44.910;8.630;2022-12-18T14:34:45;65.22;;;36.65;;
22871;SDS011;11603;44.910;8.630;2022-12-18T14:37:12;67.95;;;38.03;;
22871;SDS011;11603;44.910;8.630;2022-12-18T14:39:39;64.15;;;37.95;;
22871;SDS011;11603;44.910;8.630;2022-12-18T14:42:05;67.15;;;39.50;;
22871;SDS011;11603;44.910;8.630;2022-12-18T14:44:30;63.95;;;37.85;;
22871;SDS011;11603;44.910;8.630;2022-12-18T14:46:57;68.30;;;38.40;;
22871;SDS011;11603;44.910;8.630;2022-12-18T14:49:24;67.55;;;37.72;;
22871;SDS011;11603;44.910;8.630;2022-12-18T14:51:52;66.30;;;37.75;;
22871;SDS011;11603;44.910;8.630;2022-12-18T14:54:20;66.70;;;38.85;;
22871;SDS011;11603;44.910;8.630;2022-12-18T14:56:48;68.47;;;39.45;;
22871;SDS011;11603;44.910;8.630;2022-12-18T14:59:19;68.05;;;39.45;;
22871;SDS011;11603;44.910;8.630;2022-12-18T15:01:49;68.75;;;39.17;;
22871;SDS011;11603;44.910;8.630;2022-12-18T15:06:48;65.28;;;39.50;;
22871;SDS011;11603;44.910;8.630;2022-12-18T15:09:21;69.07;;;40.33;;
22871;SDS011;11603;44.910;8.630;2022-12-18T15:11:49;67.53;;;39.65;;
22871;SDS011;11603;44.910;8.630;2022-12-18T15:14:39;71.82;;;40.08;;
22871;SDS011;11603;44.910;8.630;2022-12-18T15:17:13;72.22;;;39.70;;
22871;SDS011;11603;44.910;8.630;2022-12-18T15:19:44;74.22;;;40.15;;
22871;SDS011;11603;44.910;8.630;2022-12-18T15:22:18;67.97;;;39.08;;
22871;SDS011;11603;44.910;8.630;2022-12-18T15:24:50;76.10;;;40.63;;
22871;SDS011;11603;44.910;8.630;2022-12-18T15:27:23;75.32;;;40.33;;
22871;SDS011;11603;44.910;8.630;2022-12-18T15:32:28;72.85;;;39.38;;
22871;SDS011;11603;44.910;8.630;2022-12-18T15:37:46;71.50;;;39.55;;
22871;SDS011;11603;44.910;8.630;2022-12-18T15:40:14;77.75;;;41.30;;
22871;SDS011;11603;44.910;8.630;2022-12-18T15:42:41;73.70;;;40.55;;
22871;SDS011;11603;44.910;8.630;2022-12-18T15:45:25;72.60;;;41.03;;
22871;SDS011;11603;44.910;8.630;2022-12-18T15:47:51;72.10;;;40.60;;
22871;SDS011;11603;44.910;8.630;2022-12-18T15:50:16;75.07;;;40.58;;
22871;SDS011;11603;44.910;8.630;2022-12-18T15:52:45;69.97;;;39.70;;
22871;SDS011;11603;44.910;8.630;2022-12-18T15:55:13;76.38;;;41.58;;
22871;SDS011;11603;44.910;8.630;2022-12-18T15:57:58;76.45;;;39.88;;
22871;SDS011;11603;44.910;8.630;2022-12-18T16:00:24;72.72;;;40.05;;
22871;SDS011;11603;44.910;8.630;2022-12-18T16:02:49;75.18;;;40.40;;
22871;SDS011;11603;44.910;8.630;2022-12-18T16:05:16;78.43;;;42.13;;
22871;SDS011;11603;44.910;8.630;2022-12-18T16:07:44;77.45;;;41.22;;
22871;SDS011;11603;44.910;8.630;2022-12-18T16:10:10;81.85;;;44.95;;
22871;SDS011;11603;44.910;8.630;2022-12-18T16:12:35;76.55;;;44.92;;
22871;SDS011;11603;44.910;8.630;2022-12-18T16:15:01;78.15;;;45.28;;
22871;SDS011;11603;44.910;8.630;2022-12-18T16:17:27;77.93;;;46.70;;
22871;SDS011;11603;44.910;8.630;2022-12-18T16:19:53;83.40;;;47.78;;
22871;SDS011;11603;44.910;8.630;2022-12-18T16:22:22;77.40;;;48.55;;
22871;SDS011;11603;44.910;8.630;2022-12-18T16:24:50;80.22;;;49.78;;
22871;SDS011;11603;44.910;8.630;2022-12-18T16:27:17;81.88;;;49.00;;
22871;SDS011;11603;44.910;8.630;2022-12-18T16:29:43;81.70;;;50.03;;
22871;SDS011;11603;44.910;8.630;2022-12-18T16:32:11;80.10;;;49.85;;
22871;SDS011;11603;44.910;8.630;2022-12-18T16:34:42;79.15;;;48.05;;
22871;SDS011;11603;44.910;8.630;2022-12-18T16:37:09;84.75;;;50.70;;
22871;SDS011;11603;44.910;8.630;2022-12-18T16:39:36;81.10;;;48.85;;